To NAV CANADA Home Page Login to a new session Search on AWWS site Feedback and Comments Disclaimer Vers la page française équivalente Tips FAQ What's new on the site To the Forecasts and Observations / NOTAM section To "File a Flight Plan" website Publications and other links Update of the User's profile FIC Telephone Numbers My Weather Data Folder Route Weather Data Regional Weather Data Local Weather Data To the Forecasts and Observations / NOTAM section
Request Generated 08/22/2017 at 01:37:29 UTC . Weather information available at that time is displayed.

METAR/TAF

LONDON/ON    

METAR CYXU 220100Z 16006KT 15SM BKN260 23/19 A3003 RMK CI7 SLP167
DENSITY ALT 2000FT=
METAR CYXU 220000Z 18005KT 15SM FEW040 FEW170 BKN260 24/19 A3003 RMK
CU1AC1CI5 SLP168 DENSITY ALT 2100FT=
METAR CYXU 212300Z 18008KT 15SM BKN260 26/19 A3005 RMK CI7 CB TOP
DIST S SLP174 DENSITY ALT 2300FT=

TAF CYXU 212342Z 2200/2224 19008KT P6SM FEW040 BKN240
BECMG 2201/2203 16006KT
FM220600 19008KT P6SM FEW040
FM221000 19010KT 6SM BR FEW240
FM221300 21015KT 6SM -SHRA BR BKN010 OVC060 PROB30 2213/2216
VRB25G45KT 1SM +TSRA BR BKN006 OVC030CB
FM221700 24020G30KT 5SM -SHRA BR BKN010 OVC220
FM221900 25018G28KT P6SM -SHRA BKN012 OVC025 PROB30 2219/2221 2SM
TSRA BR OVC012CB
FM222200 30018G28KT P6SM BKN030
RMK NXT FCST BY 220600Z=
Your time UTC time
Weather data provided by Environment Canada and NAV CANADA